Time;durP1;ratioP1;P1;durP2;ratioP2;P2;SDS_P1;SDS_P2;PMS_P1;PMS_P2;Temp;Humidity;BMP_temperature;BMP_pressure;BME280_temperature;BME280_humidity;BME280_pressure;Samples;Min_cycle;Max_cycle;Signal;HPM_P1;HPM_P2
2023/01/19 00:02:01;;;;;;;28.77;16.05;;;;;;;0.82;66.10;99637.69;4117899;28;20042;-61
2023/01/19 00:04:05;;;;;;;30.65;19.48;;;;;;;0.79;65.91;99640.09;4109712;28;20093;-61
2023/01/19 00:06:08;;;;;;;27.40;17.30;;;;;;;0.78;66.14;99643.50;4112718;28;20250;-61
2023/01/19 00:08:15;;;;;;;23.95;12.68;;;;;;;0.77;66.06;99641.72;4116062;28;20524;-61
2023/01/19 00:10:19;;;;;;;23.67;13.55;;;;;;;0.76;66.18;99645.09;4122347;28;20511;-61
2023/01/19 00:12:22;;;;;;;27.25;15.00;;;;;;;0.76;66.37;99643.44;4116328;28;20034;-61
2023/01/19 00:14:25;;;;;;;25.65;13.50;;;;;;;0.78;66.22;99643.50;4119005;28;20100;-61
2023/01/19 00:16:28;;;;;;;21.98;12.40;;;;;;;0.76;65.92;99645.09;4116151;28;20051;-61
2023/01/19 00:18:31;;;;;;;36.47;17.98;;;;;;;0.75;65.85;99656.16;4115768;28;20057;-61
2023/01/19 00:20:35;;;;;;;28.25;15.02;;;;;;;0.73;66.19;99650.97;4117233;28;20042;-61
2023/01/19 00:22:37;;;;;;;20.33;11.55;;;;;;;0.72;66.46;99656.03;4121644;28;20134;-61
2023/01/19 00:24:40;;;;;;;19.30;11.50;;;;;;;0.66;66.37;99654.97;4119679;28;20045;-61
2023/01/19 00:26:45;;;;;;;18.75;9.88;;;;;;;0.68;66.47;99657.59;4129330;28;20050;-61
2023/01/19 00:28:48;;;;;;;17.38;10.55;;;;;;;0.66;66.28;99662.63;4113076;28;20057;-61
2023/01/19 00:30:51;;;;;;;16.80;9.77;;;;;;;0.63;66.83;99659.97;4097187;28;20441;-62
2023/01/19 00:32:54;;;;;;;14.40;9.60;;;;;;;0.61;66.95;99658.13;4116511;28;20294;-61
2023/01/19 00:34:57;;;;;;;14.10;9.27;;;;;;;0.60;67.06;99652.16;4126366;28;20314;-61
2023/01/19 00:37:01;;;;;;;13.20;8.48;;;;;;;0.59;66.56;99658.06;4121359;28;20500;-61
2023/01/19 00:39:04;;;;;;;15.30;9.65;;;;;;;0.58;66.78;99669.09;4113202;28;20529;-61
2023/01/19 00:41:07;;;;;;;12.63;8.70;;;;;;;0.61;66.83;99665.81;4110538;28;20043;-61
2023/01/19 00:43:10;;;;;;;12.18;7.68;;;;;;;0.68;66.73;99670.38;4113971;28;20034;-61
2023/01/19 00:45:15;;;;;;;11.95;8.25;;;;;;;0.64;66.86;99673.59;4122188;28;20038;-61
2023/01/19 00:47:18;;;;;;;16.73;8.57;;;;;;;0.63;66.81;99675.31;4125052;28;20097;-61
2023/01/19 00:49:21;;;;;;;14.45;8.32;;;;;;;0.61;67.17;99669.22;4122617;28;20081;-61
2023/01/19 00:51:24;;;;;;;14.75;9.18;;;;;;;0.61;67.58;99674.34;4113850;28;20039;-61
2023/01/19 00:53:31;;;;;;;14.38;8.93;;;;;;;0.57;67.58;99671.59;4115606;28;20116;-61
2023/01/19 00:55:34;;;;;;;14.52;8.20;;;;;;;0.59;67.78;99680.25;4118608;28;20038;-61
2023/01/19 00:57:38;;;;;;;17.50;8.90;;;;;;;0.61;67.08;99674.34;4124868;28;20038;-61
2023/01/19 00:59:42;;;;;;;12.17;8.10;;;;;;;0.61;67.70;99683.72;4125088;28;20039;-61
2023/01/19 01:01:45;;;;;;;12.23;8.15;;;;;;;0.64;67.58;99689.84;4113816;28;20042;-61
2023/01/19 01:03:48;;;;;;;13.50;9.38;;;;;;;0.64;67.77;99684.72;4115718;28;20277;-61
2023/01/19 01:05:51;;;;;;;15.45;9.05;;;;;;;0.63;67.69;99688.09;4116274;28;20072;-61
2023/01/19 01:07:54;;;;;;;13.80;9.35;;;;;;;0.59;67.65;99686.22;4123245;28;20034;-61
2023/01/19 01:09:56;;;;;;;14.65;9.23;;;;;;;0.51;68.38;99688.47;4122184;28;20423;-61
2023/01/19 01:11:59;;;;;;;14.98;9.05;;;;;;;0.47;68.42;99693.38;4120064;28;20038;-61
2023/01/19 01:14:02;;;;;;;17.35;9.90;;;;;;;0.48;68.63;99687.44;4114806;28;20046;-61
2023/01/19 01:16:08;;;;;;;15.48;9.55;;;;;;;0.57;68.16;99681.84;4116961;28;20401;-61
2023/01/19 01:18:11;;;;;;;16.33;9.07;;;;;;;0.60;68.61;99687.97;4120954;28;20035;-61
2023/01/19 01:20:16;;;;;;;15.13;9.93;;;;;;;0.58;68.26;99691.25;4118893;28;20042;-61
2023/01/19 01:22:19;;;;;;;14.30;9.00;;;;;;;0.59;68.34;99686.22;4123735;28;20030;-61
2023/01/19 01:24:22;;;;;;;17.60;10.15;;;;;;;0.62;67.98;99691.44;4113883;28;20030;-61
2023/01/19 01:26:25;;;;;;;18.77;10.38;;;;;;;0.68;67.83;99689.13;4117756;28;20112;-61
2023/01/19 01:28:29;;;;;;;22.85;12.10;;;;;;;0.72;67.97;99687.59;4116957;28;20057;-61
2023/01/19 01:30:32;;;;;;;15.48;10.05;;;;;;;0.73;67.80;99688.47;4110831;28;20101;-61
2023/01/19 01:32:36;;;;;;;15.98;10.07;;;;;;;0.79;67.73;99693.81;4119733;28;20043;-61
2023/01/19 01:34:39;;;;;;;17.30;11.02;;;;;;;0.75;67.60;99694.53;4119623;28;20035;-61
2023/01/19 01:36:43;;;;;;;15.57;10.05;;;;;;;0.75;67.61;99697.97;4114518;28;20046;-61
2023/01/19 01:38:46;;;;;;;18.73;10.27;;;;;;;0.72;67.79;99691.84;4116296;28;20047;-61
2023/01/19 01:40:49;;;;;;;17.70;12.13;;;;;;;0.69;68.01;99696.00;4108990;28;20523;-61
2023/01/19 01:42:52;;;;;;;17.10;10.70;;;;;;;0.74;67.30;99696.19;4117489;28;20035;-61
2023/01/19 01:44:56;;;;;;;20.33;10.88;;;;;;;0.72;68.03;99694.41;4119288;28;20094;-61
2023/01/19 01:46:59;;;;;;;16.15;10.57;;;;;;;0.76;67.52;99696.25;4111018;28;20093;-61
2023/01/19 01:49:07;;;;;;;20.40;11.50;;;;;;;0.74;67.48;99697.91;4115479;28;20039;-61
2023/01/19 01:51:22;;;;;;;18.13;11.88;;;;;;;0.75;67.84;99691.97;4119199;28;20038;-61
2023/01/19 01:53:26;;;;;;;16.88;10.98;;;;;;;0.68;67.90;99708.75;4100938;28;20039;-61
2023/01/19 01:55:31;;;;;;;22.10;12.30;;;;;;;0.67;68.13;99704.44;4118876;28;20093;-61
2023/01/19 01:57:35;;;;;;;;;;;;;;;0.59;67.93;99696.44;4114513;28;20290;-61
2023/01/19 01:59:43;;;;;;;18.17;11.52;;;;;;;0.59;68.57;99708.38;4117068;28;19934;-61
2023/01/19 02:04:20;;;;;;;19.17;12.25;;;;;;;0.55;68.27;99706.47;4073050;29;20036;-61
2023/01/19 02:06:23;;;;;;;21.25;10.95;;;;;;;0.54;68.49;99702.16;4091854;28;20429;-61
2023/01/19 02:13:18;;;;;;;18.40;12.32;;;;;;;0.44;68.48;99706.91;4111072;28;20039;-61
2023/01/19 02:15:21;;;;;;;23.38;11.93;;;;;;;0.44;69.08;99701.78;4126419;28;20030;-61
2023/01/19 02:17:24;;;;;;;20.52;13.07;;;;;;;0.44;69.00;99703.47;4120434;28;20038;-61
2023/01/19 02:19:33;;;;;;;17.10;11.57;;;;;;;0.44;68.40;99700.91;4117046;28;20058;-61
2023/01/19 02:21:42;;;;;;;19.50;11.10;;;;;;;0.41;68.70;99701.66;4115232;28;20129;-61
2023/01/19 02:23:49;;;;;;;24.40;11.95;;;;;;;0.42;68.52;99698.28;4118414;28;20042;-61
2023/01/19 02:25:53;;;;;;;18.77;11.75;;;;;;;0.41;69.03;99695.66;4117961;28;20517;-61
2023/01/19 02:27:56;;;;;;;19.70;11.60;;;;;;;0.37;68.57;99691.25;4125641;28;20386;-61
2023/01/19 02:30:02;;;;;;;20.20;12.13;;;;;;;0.38;68.78;99700.66;4129747;28;20305;-61
2023/01/19 02:32:05;;;;;;;19.98;12.60;;;;;;;0.38;69.10;99692.97;4115570;28;20493;-61
2023/01/19 02:34:11;;;;;;;22.50;12.55;;;;;;;0.44;69.36;99695.78;4119624;28;20489;-61
2023/01/19 02:36:16;;;;;;;21.85;14.45;;;;;;;0.40;69.33;99693.94;4118094;28;20042;-61
2023/01/19 02:38:19;;;;;;;;;;;;;;;0.33;69.65;99690.22;4122787;28;20038;-61
2023/01/19 02:40:26;;;;;;;19.50;13.05;;;;;;;0.30;69.89;99693.53;4125455;28;20399;-61
2023/01/19 02:42:34;;;;;;;19.40;12.27;;;;;;;0.31;69.46;99687.59;4124093;28;20058;-61
2023/01/19 02:44:39;;;;;;;23.27;13.23;;;;;;;0.31;69.55;99690.16;4115108;28;20085;-61
2023/01/19 02:46:43;;;;;;;19.13;12.25;;;;;;;0.29;69.68;99691.78;4119371;28;20090;-61
2023/01/19 02:48:46;;;;;;;20.77;13.93;;;;;;;0.30;69.84;99688.41;4121743;28;20460;-61
2023/01/19 02:50:52;;;;;;;19.90;12.88;;;;;;;0.30;70.25;99696.06;4116363;28;20563;-61
2023/01/19 02:53:06;;;;;;;23.90;13.57;;;;;;;0.34;69.47;99705.63;4109246;28;20127;-61
2023/01/19 02:55:18;;;;;;;20.42;13.38;;;;;;;0.42;69.34;99697.41;4121237;28;20082;-61
2023/01/19 02:57:42;;;;;;;21.35;13.13;;;;;;;0.39;69.87;99703.25;4115993;28;20493;-61
2023/01/19 03:00:06;;;;;;;21.50;13.30;;;;;;;0.34;69.52;99705.63;4116193;28;20058;-61
2023/01/19 03:02:21;;;;;;;22.15;12.65;;;;;;;0.35;70.25;99701.38;4119884;28;20042;-61
2023/01/19 03:04:33;;;;;;;19.98;12.60;;;;;;;0.29;70.46;99706.25;4125008;28;20065;-61
2023/01/19 03:06:46;;;;;;;19.17;12.95;;;;;;;0.24;70.96;99700.06;4121458;28;20042;-62
2023/01/19 03:08:55;;;;;;;17.88;12.40;;;;;;;0.21;70.45;99708.47;4108263;28;20039;-61
2023/01/19 03:11:02;;;;;;;21.20;13.65;;;;;;;0.28;71.15;99700.25;4110141;28;20105;-61
2023/01/19 03:13:11;;;;;;;23.30;12.85;;;;;;;0.28;71.05;99702.81;4112662;28;20141;-61
2023/01/19 03:15:19;;;;;;;19.02;12.75;;;;;;;0.38;70.72;99711.75;4119091;28;20039;-61
2023/01/19 03:17:22;;;;;;;22.52;13.52;;;;;;;0.38;70.48;99704.09;4114947;28;20038;-61
2023/01/19 03:19:28;;;;;;;21.55;14.68;;;;;;;0.38;70.38;99705.75;4122277;28;20070;-61
2023/01/19 03:21:35;;;;;;;19.75;13.43;;;;;;;0.41;70.29;99704.22;4124135;28;20039;-61
2023/01/19 03:23:41;;;;;;;16.88;12.38;;;;;;;0.51;69.79;99705.47;4115915;28;20050;-61
2023/01/19 03:25:47;;;;;;;22.60;13.73;;;;;;;0.55;70.36;99704.78;4117767;28;20050;-61
2023/01/19 03:27:53;;;;;;;20.35;13.57;;;;;;;0.53;70.70;99708.97;4111135;28;20468;-61
2023/01/19 03:30:01;;;;;;;23.73;14.73;;;;;;;0.56;70.88;99709.09;4111760;28;20492;-62
2023/01/19 03:32:09;;;;;;;20.73;13.50;;;;;;;0.67;70.16;99710.44;4113460;28;20046;-62
2023/01/19 03:34:15;;;;;;;19.48;12.35;;;;;;;0.66;70.25;99708.69;4119354;28;20042;-62
2023/01/19 03:36:21;;;;;;;25.75;15.10;;;;;;;0.69;70.38;99711.38;4120510;28;20129;-61
2023/01/19 03:38:27;;;;;;;18.33;12.70;;;;;;;0.68;69.95;99714.72;4116578;28;20049;-61
2023/01/19 03:40:32;;;;;;;20.55;14.35;;;;;;;0.67;70.46;99715.56;4121448;28;20050;-61
2023/01/19 03:42:36;;;;;;;20.58;12.15;;;;;;;0.74;69.97;99716.66;4118562;28;20039;-61
2023/01/19 03:44:41;;;;;;;21.50;13.25;;;;;;;0.80;69.63;99716.91;4121678;28;20133;-61
2023/01/19 03:46:47;;;;;;;20.75;14.65;;;;;;;0.72;70.41;99714.88;4118452;28;20030;-61
2023/01/19 03:48:51;;;;;;;24.10;14.18;;;;;;;0.66;70.48;99708.69;4107025;28;20042;-61
2023/01/19 03:50:55;;;;;;;22.35;12.80;;;;;;;0.67;70.76;99713.00;4117190;28;20105;-61
2023/01/19 03:53:05;;;;;;;21.20;13.50;;;;;;;0.68;70.99;99713.84;4119855;28;20480;-61
2023/01/19 03:55:08;;;;;;;22.48;13.55;;;;;;;0.71;71.10;99715.69;4121259;28;20038;-61
2023/01/19 03:57:11;;;;;;;23.92;14.25;;;;;;;0.72;70.67;99717.44;4119375;28;20459;-61
2023/01/19 03:59:16;;;;;;;22.92;15.18;;;;;;;0.69;70.70;99713.91;4119592;28;20030;-61
2023/01/19 04:01:21;;;;;;;21.38;14.10;;;;;;;0.71;70.45;99719.09;4107720;28;20047;-61
2023/01/19 04:03:25;;;;;;;19.98;12.82;;;;;;;0.67;70.85;99718.13;4116479;28;20066;-62
2023/01/19 04:05:29;;;;;;;22.15;13.43;;;;;;;0.68;70.56;99729.22;4119992;28;20053;-61
2023/01/19 04:07:32;;;;;;;23.30;14.57;;;;;;;0.63;70.52;99726.47;4121749;28;20042;-61
2023/01/19 04:09:34;;;;;;;17.27;11.82;;;;;;;0.66;70.45;99726.59;4106191;28;20130;-61
2023/01/19 04:11:37;;;;;;;25.15;13.15;;;;;;;0.68;70.92;99724.09;4125104;28;20089;-61
2023/01/19 04:13:40;;;;;;;22.33;13.43;;;;;;;0.64;70.72;99730.78;4123863;28;20054;-61
2023/01/19 04:15:43;;;;;;;20.95;14.13;;;;;;;0.61;70.48;99722.94;4114404;28;20098;-61
2023/01/19 04:17:46;;;;;;;23.08;12.45;;;;;;;0.63;70.96;99725.59;4119263;28;20532;-61
2023/01/19 04:19:50;;;;;;;21.98;14.98;;;;;;;0.62;70.91;99724.69;4119161;28;20509;-61
2023/01/19 04:21:54;;;;;;;18.25;12.73;;;;;;;0.57;71.17;99726.22;4116017;28;20042;-61
2023/01/19 04:23:57;;;;;;;24.97;14.40;;;;;;;0.50;71.10;99725.06;4123713;28;20042;-61
2023/01/19 04:26:02;;;;;;;17.92;12.25;;;;;;;0.50;71.44;99726.75;4129933;28;20413;-61
2023/01/19 04:28:05;;;;;;;23.48;13.13;;;;;;;0.40;70.81;99724.63;4117796;28;20046;-61
2023/01/19 04:30:09;;;;;;;18.02;13.07;;;;;;;0.41;71.08;99731.44;4118175;28;20035;-61
2023/01/19 04:32:13;;;;;;;20.83;13.95;;;;;;;0.42;71.05;99728.09;4115664;28;20404;-61
2023/01/19 04:34:16;;;;;;;17.65;12.23;;;;;;;0.45;71.17;99733.34;4121215;28;20045;-61
2023/01/19 04:36:20;;;;;;;21.05;13.65;;;;;;;0.50;71.57;99735.28;4119984;28;20039;-61
2023/01/19 04:38:26;;;;;;;18.83;13.07;;;;;;;0.54;71.25;99733.75;4115348;28;20580;-61
2023/01/19 04:40:29;;;;;;;21.33;13.60;;;;;;;0.58;71.28;99740.72;4112787;28;20050;-61
2023/01/19 04:42:32;;;;;;;20.95;14.02;;;;;;;0.63;70.50;99734.13;4116952;28;20042;-61
2023/01/19 04:44:35;;;;;;;20.23;12.27;;;;;;;0.65;70.75;99732.50;4120011;28;20042;-61
2023/01/19 04:46:37;;;;;;;21.30;13.95;;;;;;;0.55;70.74;99734.63;4118033;28;20485;-61
2023/01/19 04:48:41;;;;;;;18.63;13.30;;;;;;;0.63;70.45;99730.72;4120746;28;20089;-61
2023/01/19 04:50:44;;;;;;;21.17;13.35;;;;;;;0.59;70.75;99732.25;4122506;28;20496;-61
2023/01/19 04:52:48;;;;;;;21.45;12.50;;;;;;;0.61;71.00;99734.88;4107670;28;20047;-61
2023/01/19 04:54:51;;;;;;;22.42;13.50;;;;;;;0.60;70.53;99738.22;4113488;28;20472;-61
2023/01/19 04:56:54;;;;;;;18.40;13.48;;;;;;;0.61;70.97;99735.72;4122571;28;20038;-61
2023/01/19 04:58:57;;;;;;;18.05;12.38;;;;;;;0.59;70.54;99736.50;4121722;28;20394;-61
2023/01/19 05:01:00;;;;;;;18.45;12.13;;;;;;;0.55;70.56;99735.47;4121869;28;20066;-60
2023/01/19 05:03:03;;;;;;;20.55;13.35;;;;;;;0.53;70.67;99734.56;4116047;28;20039;-61
2023/01/19 05:05:07;;;;;;;21.77;14.27;;;;;;;0.55;70.92;99740.59;4117915;28;20054;-61
2023/01/19 05:07:10;;;;;;;21.42;14.32;;;;;;;0.52;70.70;99735.34;4121625;28;20042;-61
2023/01/19 05:09:14;;;;;;;19.73;12.70;;;;;;;0.54;70.59;99744.00;4112228;28;20046;-65
2023/01/19 05:11:17;;;;;;;18.75;12.75;;;;;;;0.45;70.89;99748.69;4108658;28;20074;-65
2023/01/19 05:13:20;;;;;;;19.15;12.88;;;;;;;0.44;70.90;99744.38;4112292;28;20046;-65
2023/01/19 05:15:23;;;;;;;19.35;12.70;;;;;;;0.46;71.12;99747.88;4116507;28;20534;-65
2023/01/19 05:17:26;;;;;;;19.75;13.38;;;;;;;0.53;70.67;99747.34;4120869;28;20038;-65
2023/01/19 05:19:28;;;;;;;19.20;11.88;;;;;;;0.50;70.78;99758.31;4108494;28;20046;-65
2023/01/19 05:21:31;;;;;;;18.45;12.95;;;;;;;0.51;70.71;99759.16;4117764;28;20038;-65
2023/01/19 05:23:34;;;;;;;25.23;14.00;;;;;;;0.54;70.71;99764.44;4101478;28;20043;-65
2023/01/19 05:25:39;;;;;;;18.40;12.23;;;;;;;0.60;70.93;99762.13;4110625;28;20038;-65
2023/01/19 05:27:41;;;;;;;20.58;13.57;;;;;;;0.58;70.88;99762.88;4113479;28;20130;-65
2023/01/19 05:29:44;;;;;;;18.65;13.15;;;;;;;0.60;70.74;99759.59;4106101;28;20409;-65
2023/01/19 05:31:47;;;;;;;20.98;14.52;;;;;;;0.58;71.25;99756.06;4097326;28;20042;-65
2023/01/19 05:33:50;;;;;;;21.55;13.60;;;;;;;0.59;70.92;99752.72;4114256;28;20042;-65
2023/01/19 05:35:54;;;;;;;21.92;13.15;;;;;;;0.54;71.40;99743.09;4098586;28;20047;-65
2023/01/19 05:37:57;;;;;;;19.63;12.93;;;;;;;0.53;71.54;99737.13;4106074;28;20400;-66
2023/01/19 05:40:00;;;;;;;22.75;15.48;;;;;;;0.48;71.25;99731.81;4101103;28;20129;-66
2023/01/19 05:42:05;;;;;;;18.27;13.20;;;;;;;0.47;71.29;99741.97;4113180;28;20564;-67
2023/01/19 05:44:09;;;;;;;19.17;13.90;;;;;;;0.46;70.83;99746.19;4118555;28;20468;-67
2023/01/19 05:46:12;;;;;;;22.20;12.93;;;;;;;0.48;71.73;99748.81;4099464;29;20039;-66
2023/01/19 05:48:14;;;;;;;17.90;12.52;;;;;;;0.49;71.08;99746.31;4111159;28;20038;-66
2023/01/19 05:50:17;;;;;;;17.17;12.10;;;;;;;0.51;71.07;99743.81;4115395;28;20057;-66
2023/01/19 05:52:20;;;;;;;15.95;12.25;;;;;;;0.55;71.48;99739.72;4105102;28;20050;-66
2023/01/19 05:54:23;;;;;;;23.88;14.35;;;;;;;0.59;70.82;99744.19;4117929;28;20038;-66
2023/01/19 05:56:27;;;;;;;22.50;14.70;;;;;;;0.50;71.81;99747.22;4102679;28;20035;-67
2023/01/19 05:58:33;;;;;;;21.35;13.93;;;;;;;0.52;71.65;99740.47;4119278;28;20046;-66
2023/01/19 06:00:36;;;;;;;22.35;13.93;;;;;;;0.49;71.56;99748.88;4114170;28;20552;-67
2023/01/19 06:02:39;;;;;;;22.45;14.15;;;;;;;0.53;71.92;99749.91;4114854;28;20090;-66
2023/01/19 06:04:41;;;;;;;19.60;13.32;;;;;;;0.53;71.45;99752.47;4110377;28;20449;-66
2023/01/19 06:06:44;;;;;;;19.88;13.27;;;;;;;0.51;71.70;99751.50;4108018;28;20034;-67
2023/01/19 06:08:47;;;;;;;19.77;14.00;;;;;;;0.47;72.21;99758.19;4116479;28;20045;-66
2023/01/19 06:10:50;;;;;;;21.20;13.98;;;;;;;0.50;71.52;99748.06;4110087;28;20039;-67
2023/01/19 06:12:53;;;;;;;20.30;13.23;;;;;;;0.47;72.09;99752.19;4110614;28;20155;-67
2023/01/19 06:14:57;;;;;;;21.15;14.45;;;;;;;0.51;71.62;99751.50;4110914;28;20043;-66
2023/01/19 06:17:00;;;;;;;16.00;11.68;;;;;;;0.75;74.42;99755.94;4106804;28;20047;-63
2023/01/19 06:19:03;;;;;;;17.77;12.30;;;;;;;1.45;77.60;99752.81;4103665;28;20077;-63
2023/01/19 06:21:09;;;;;;;18.38;12.63;;;;;;;2.14;76.75;99759.66;4110176;28;20034;-63
2023/01/19 06:23:12;;;;;;;19.55;13.25;;;;;;;2.40;72.88;99758.03;4102414;28;20050;-68
2023/01/19 06:25:15;;;;;;;24.75;13.65;;;;;;;2.10;70.17;99762.94;4110214;28;20117;-68
2023/01/19 06:27:18;;;;;;;22.88;14.95;;;;;;;1.73;69.91;99775.22;4109405;28;20125;-68
2023/01/19 06:29:21;;;;;;;19.42;13.57;;;;;;;1.45;69.98;99778.41;4104682;28;20141;-68
2023/01/19 06:31:26;;;;;;;17.57;12.80;;;;;;;1.24;70.60;99780.97;4107422;28;20517;-68
2023/01/19 06:33:29;;;;;;;22.33;13.73;;;;;;;1.13;70.81;99784.81;4104541;28;20776;-68
2023/01/19 06:35:32;;;;;;;19.50;13.07;;;;;;;0.97;70.86;99788.41;4103353;28;20072;-68
2023/01/19 06:37:35;;;;;;;21.75;14.80;;;;;;;0.92;70.93;99782.22;4106999;28;20039;-68
2023/01/19 06:39:39;;;;;;;22.88;14.45;;;;;;;0.88;70.88;99791.47;4107011;28;20043;-68
2023/01/19 06:41:42;;;;;;;19.60;14.23;;;;;;;0.82;71.40;99786.94;4106859;28;20133;-68
2023/01/19 06:43:45;;;;;;;19.00;13.27;;;;;;;0.84;71.33;99789.56;4112595;28;20047;-68
2023/01/19 06:45:49;;;;;;;17.17;12.18;;;;;;;0.71;71.98;99782.19;4103408;28;20119;-68
2023/01/19 06:47:53;;;;;;;25.77;14.32;;;;;;;0.72;71.59;99789.94;4107415;28;20441;-68
2023/01/19 06:49:56;;;;;;;23.58;13.60;;;;;;;0.72;72.12;99799.28;4108145;28;20497;-68
2023/01/19 06:52:24;;;;;;;21.35;13.80;;;;;;;0.84;71.40;99802.38;4107914;28;20039;-68
2023/01/19 06:54:27;;;;;;;23.38;13.50;;;;;;;0.81;71.69;99804.78;4104884;28;20047;-68
2023/01/19 06:56:30;;;;;;;20.17;13.23;;;;;;;0.77;72.02;99808.88;4107510;28;20047;-68
2023/01/19 06:58:33;;;;;;;19.88;13.43;;;;;;;0.78;72.36;99810.66;4106183;28;20521;-68
2023/01/19 07:00:36;;;;;;;19.75;13.05;;;;;;;0.85;71.83;99812.66;4116173;28;20413;-68
2023/01/19 07:02:42;;;;;;;20.33;13.23;;;;;;;0.89;71.61;99811.09;4125244;28;20500;-67
2023/01/19 07:04:46;;;;;;;23.08;14.48;;;;;;;0.95;71.66;99807.94;4113680;28;20035;-67
2023/01/19 07:06:50;;;;;;;19.77;13.68;;;;;;;0.92;71.39;99816.38;4124766;28;20038;-67
2023/01/19 07:08:53;;;;;;;18.48;13.65;;;;;;;0.96;71.17;99807.13;4133680;28;20046;-67
2023/01/19 07:10:59;;;;;;;20.17;14.35;;;;;;;1.02;71.39;99812.50;4123852;28;20053;-67
2023/01/19 07:13:22;;;;;;;19.00;14.07;;;;;;;0.97;71.79;99814.00;4113242;28;20089;-67
2023/01/19 07:15:25;;;;;;;19.17;13.05;;;;;;;0.93;71.80;99814.66;4114229;28;20082;-67
2023/01/19 07:17:28;;;;;;;19.33;13.65;;;;;;;0.96;71.24;99815.66;4117234;28;20055;-67
2023/01/19 07:19:33;;;;;;;21.30;13.98;;;;;;;0.95;71.84;99816.50;4118902;28;20038;-67
2023/01/19 07:21:38;;;;;;;20.40;13.35;;;;;;;0.95;71.83;99813.94;4121181;28;20513;-67
2023/01/19 07:23:42;;;;;;;25.25;16.73;;;;;;;1.00;71.65;99822.66;4120411;28;20038;-67
2023/01/19 07:25:45;;;;;;;24.75;14.20;;;;;;;0.92;72.20;99812.91;4127729;28;20038;-69
2023/01/19 07:27:48;;;;;;;21.30;13.45;;;;;;;0.94;71.81;99822.41;4125219;28;20050;-67
2023/01/19 07:29:51;;;;;;;21.02;12.40;;;;;;;0.93;71.93;99825.78;4101428;28;20561;-67
2023/01/19 07:31:54;;;;;;;22.13;13.70;;;;;;;0.98;71.82;99823.41;4101010;28;20482;-68
2023/01/19 07:33:57;;;;;;;18.52;12.80;;;;;;;0.93;71.95;99822.34;4128774;28;20427;-67
2023/01/19 07:35:59;;;;;;;21.73;13.30;;;;;;;0.95;72.04;99829.28;4129771;28;20452;-67
2023/01/19 07:38:04;;;;;;;19.63;13.13;;;;;;;1.02;71.45;99828.75;4114341;28;20058;-67
2023/01/19 07:40:08;;;;;;;19.02;12.32;;;;;;;0.98;71.68;99833.63;4125200;28;20042;-67
2023/01/19 07:42:11;;;;;;;18.27;12.02;;;;;;;0.96;72.09;99837.84;4115120;28;20043;-67
2023/01/19 07:44:14;;;;;;;19.23;13.38;;;;;;;1.00;71.95;99843.13;4114149;28;20070;-67
2023/01/19 07:46:17;;;;;;;22.13;13.88;;;;;;;1.04;71.98;99839.91;4116998;28;20078;-68
2023/01/19 07:48:19;;;;;;;19.13;12.23;;;;;;;1.05;71.83;99848.44;4115799;28;20047;-67
2023/01/19 07:50:24;;;;;;;16.45;12.00;;;;;;;1.03;71.97;99853.50;4117062;28;20101;-67
2023/01/19 07:52:27;;;;;;;;;;;;;;;0.98;71.95;99860.13;4116074;28;20053;-67
2023/01/19 07:54:31;;;;;;;20.05;12.82;;;;;;;0.98;72.57;99859.22;4104570;28;20456;-67
2023/01/19 07:56:34;;;;;;;17.83;11.45;;;;;;;0.95;72.07;99854.00;4115084;28;20047;-67
2023/01/19 07:58:37;;;;;;;18.38;12.45;;;;;;;0.94;71.97;99858.25;4117038;28;20047;-67
2023/01/19 08:00:40;;;;;;;18.27;12.70;;;;;;;1.00;72.15;99863.63;4109919;28;20067;-67
2023/01/19 08:02:42;;;;;;;20.95;13.50;;;;;;;1.04;72.35;99855.25;4124047;28;20469;-68
2023/01/19 08:04:47;;;;;;;18.00;11.43;;;;;;;1.08;72.04;99860.50;4115131;28;20433;-67
2023/01/19 08:06:50;;;;;;;;;;;;;;;0.93;72.22;99866.72;4115950;28;20039;-67
2023/01/19 08:08:53;;;;;;;18.25;11.70;;;;;;;0.85;72.17;99874.06;4115464;28;20458;-67
2023/01/19 08:10:58;;;;;;;19.90;12.18;;;;;;;0.97;72.14;99872.88;4112661;28;20074;-67
2023/01/19 08:13:00;;;;;;;15.98;11.52;;;;;;;1.03;72.29;99879.09;4111848;28;20053;-67
2023/01/19 08:15:05;;;;;;;20.67;13.05;;;;;;;1.10;72.37;99874.28;4103210;28;20047;-66
2023/01/19 08:17:12;;;;;;;16.73;12.05;;;;;;;1.06;71.97;99873.25;4123827;28;20034;-67
2023/01/19 08:19:15;;;;;;;21.42;13.07;;;;;;;1.11;72.16;99874.34;4110027;28;20038;-66
2023/01/19 08:21:17;;;;;;;19.52;13.05;;;;;;;1.16;72.03;99869.41;4120495;28;20130;-67
2023/01/19 08:23:20;;;;;;;26.10;13.68;;;;;;;1.11;71.93;99869.22;4115761;28;20046;-66
2023/01/19 08:25:23;;;;;;;18.20;12.65;;;;;;;1.15;72.15;99877.88;4115909;28;20117;-66
2023/01/19 08:27:27;;;;;;;17.73;11.93;;;;;;;1.16;72.00;99877.09;4116380;28;20043;-66
2023/01/19 08:29:31;;;;;;;18.58;12.10;;;;;;;1.18;72.07;99867.78;4099123;29;20075;-66
2023/01/19 08:31:34;;;;;;;20.08;13.30;;;;;;;1.22;72.02;99870.53;4100226;28;20133;-66
2023/01/19 08:33:37;;;;;;;18.45;12.00;;;;;;;1.17;72.00;99869.47;4102756;28;20127;-66
2023/01/19 08:35:42;;;;;;;23.70;14.48;;;;;;;1.27;72.18;99864.72;4129669;28;20086;-66
2023/01/19 08:37:45;;;;;;;18.40;12.50;;;;;;;1.22;72.09;99860.28;4106175;28;20032;-66
2023/01/19 08:39:52;;;;;;;18.77;12.40;;;;;;;1.21;71.97;99861.13;4103376;28;20043;-67
2023/01/19 08:41:55;;;;;;;24.08;13.60;;;;;;;1.21;72.55;99852.53;4103926;28;20520;-66
2023/01/19 08:43:59;;;;;;;17.58;12.43;;;;;;;1.34;72.28;99853.94;4110765;28;20105;-66
2023/01/19 08:46:02;;;;;;;17.05;12.63;;;;;;;1.43;72.02;99853.44;4088879;29;20056;-66
2023/01/19 08:48:06;;;;;;;24.27;13.63;;;;;;;1.41;71.88;99852.50;4116741;28;20035;-66
2023/01/19 08:50:10;;;;;;;19.42;12.90;;;;;;;1.48;71.87;99849.38;4105196;28;20494;-66
2023/01/19 08:52:13;;;;;;;19.83;12.40;;;;;;;1.53;71.58;99848.75;4092060;28;20098;-66
2023/01/19 08:54:16;;;;;;;20.85;13.35;;;;;;;1.48;71.72;99857.94;4123522;28;20121;-66
2023/01/19 08:56:20;;;;;;;20.77;13.18;;;;;;;1.49;71.62;99864.81;4126345;28;20081;-66
2023/01/19 08:58:23;;;;;;;19.80;12.10;;;;;;;1.46;71.59;99864.69;4121306;28;20129;-66
2023/01/19 09:00:30;;;;;;;16.45;12.15;;;;;;;1.57;72.02;99868.53;4117806;28;20043;-66
2023/01/19 09:02:33;;;;;;;20.88;11.90;;;;;;;1.75;71.12;99867.53;4112406;28;20049;-66
2023/01/19 09:04:36;;;;;;;20.80;11.57;;;;;;;1.78;71.64;99869.34;4108769;28;20039;-67
2023/01/19 09:06:39;;;;;;;24.48;13.77;;;;;;;1.60;71.07;99864.38;4121076;28;20057;-66
2023/01/19 09:08:42;;;;;;;16.10;11.90;;;;;;;1.61;71.46;99864.44;4122367;28;20046;-66
2023/01/19 09:10:46;;;;;;;17.83;12.07;;;;;;;1.73;71.49;99862.34;4123152;28;20046;-66
2023/01/19 09:12:49;;;;;;;20.52;12.23;;;;;;;1.67;71.44;99863.81;4108729;28;20039;-65
2023/01/19 09:14:52;;;;;;;18.15;12.00;;;;;;;1.77;71.13;99865.03;4121809;28;20513;-66
2023/01/19 09:16:57;;;;;;;15.45;11.15;;;;;;;1.88;71.06;99864.66;4100257;28;20555;-66
2023/01/19 09:19:00;;;;;;;18.77;12.25;;;;;;;1.86;70.97;99867.97;4115445;28;20043;-65
2023/01/19 09:21:04;;;;;;;21.77;13.02;;;;;;;1.78;71.09;99866.78;4112586;28;20054;-66
2023/01/19 09:23:07;;;;;;;18.15;11.52;;;;;;;1.76;71.47;99868.44;4109512;28;20042;-66
2023/01/19 09:25:10;;;;;;;20.48;11.73;;;;;;;1.70;71.59;99866.50;4106419;28;20055;-66
2023/01/19 09:27:13;;;;;;;16.83;11.57;;;;;;;1.70;71.42;99867.34;4111713;28;20042;-66
2023/01/19 09:29:16;;;;;;;21.23;12.20;;;;;;;1.72;71.50;99865.75;4111910;28;20043;-66
2023/01/19 09:31:18;;;;;;;17.40;11.85;;;;;;;1.85;72.00;99869.66;4110314;28;20121;-67
2023/01/19 09:33:24;;;;;;;15.80;12.13;;;;;;;1.85;71.17;99873.91;4107919;28;20070;-66
2023/01/19 09:35:27;;;;;;;17.23;10.88;;;;;;;1.94;71.79;99874.25;4111144;28;20137;-66
2023/01/19 09:37:30;;;;;;;15.77;10.68;;;;;;;2.06;70.87;99864.50;4112040;28;20107;-66
2023/01/19 09:39:32;;;;;;;14.77;10.57;;;;;;;2.07;71.00;99871.41;4108546;28;20117;-66
2023/01/19 09:41:37;;;;;;;19.38;10.73;;;;;;;2.16;70.77;99873.44;4115928;28;20049;-67
2023/01/19 09:43:43;;;;;;;18.10;11.88;;;;;;;2.07;70.89;99870.50;4105877;28;20544;-67
2023/01/19 09:45:51;;;;;;;20.17;11.98;;;;;;;2.02;71.22;99870.31;4111279;28;20058;-67
2023/01/19 09:47:57;;;;;;;17.08;11.75;;;;;;;1.97;70.86;99866.72;4113915;28;20493;-67